Time;durP1;ratioP1;P1;durP2;ratioP2;P2;SDS_P1;SDS_P2;PMS_P1;PMS_P2;Temp;Humidity;BMP_temperature;BMP_pressure;BME280_temperature;BME280_humidity;BME280_pressure;Samples;Min_cycle;Max_cycle;Signal;HPM_P1;HPM_P2
2021/04/21 00:04:17;;;;;;;5.65;3.67;;;8.30;99.90;;;;;;12389114;28;20121;-81
2021/04/21 00:10:20;;;;;;;6.82;3.70;;;8.50;99.90;;;;;;12390653;28;20085;-81
2021/04/21 00:16:22;;;;;;;8.68;3.63;;;8.40;99.90;;;;;;12392155;28;20138;-81
2021/04/21 00:22:27;;;;;;;6.30;3.90;;;8.40;99.90;;;;;;12405173;28;20057;-81
2021/04/21 00:28:33;;;;;;;7.97;3.42;;;8.20;99.90;;;;;;12391464;28;20546;-81
2021/04/21 00:34:36;;;;;;;6.35;3.67;;;8.20;99.90;;;;;;12383066;28;20080;-81
2021/04/21 00:40:43;;;;;;;5.97;3.45;;;7.80;99.90;;;;;;12405725;28;20077;-81
2021/04/21 00:46:49;;;;;;;7.63;3.80;;;8.00;99.90;;;;;;12395600;28;20133;-81
2021/04/21 00:53:07;;;;;;;7.28;3.47;;;8.10;99.90;;;;;;12406992;28;20042;-81
2021/04/21 00:59:22;;;;;;;8.50;4.05;;;7.90;99.90;;;;;;12402372;28;20050;-81
2021/04/21 01:05:31;;;;;;;10.40;3.63;;;7.90;99.90;;;;;;12406406;28;20069;-81
2021/04/21 01:11:43;;;;;;;7.30;3.90;;;7.70;99.90;;;;;;12383024;28;20046;-81
2021/04/21 01:17:47;;;;;;;6.18;3.30;;;7.80;99.90;;;;;;12385664;28;20053;-81
2021/04/21 01:24:10;;;;;;;9.23;4.20;;;7.30;99.90;;;;;;12391910;28;20037;-82
2021/04/21 01:30:20;;;;;;;9.57;4.07;;;7.20;99.90;;;;;;12386780;28;20070;-81
2021/04/21 01:36:24;;;;;;;11.85;4.07;;;7.10;99.90;;;;;;12403612;28;20046;-81
2021/04/21 01:42:31;;;;;;;7.22;3.88;;;7.00;99.90;;;;;;12392650;28;20485;-81
2021/04/21 01:48:34;;;;;;;6.15;4.03;;;6.90;99.90;;;;;;12393623;28;20046;-81
2021/04/21 01:54:40;;;;;;;10.98;4.72;;;6.70;99.90;;;;;;12391383;28;21093;-81
2021/04/21 02:00:47;;;;;;;9.70;4.72;;;6.60;99.90;;;;;;12395145;28;20099;-81
2021/04/21 02:06:58;;;;;;;7.72;4.53;;;6.50;99.90;;;;;;12412747;28;20091;-81
2021/04/21 02:13:24;;;;;;;7.93;4.80;;;6.50;99.90;;;;;;12397496;28;20133;-81
2021/04/21 02:20:00;;;;;;;8.27;5.28;;;6.30;99.90;;;;;;12387072;28;20053;-81
2021/04/21 02:26:25;;;;;;;8.90;5.20;;;6.40;99.90;;;;;;12402621;28;20064;-81
2021/04/21 02:32:52;;;;;;;10.80;5.00;;;6.30;99.90;;;;;;12393567;28;20050;-81
2021/04/21 02:39:02;;;;;;;12.07;4.80;;;6.20;99.90;;;;;;12391660;28;20495;-81
2021/04/21 02:45:13;;;;;;;7.47;5.05;;;6.10;99.90;;;;;;12395622;28;20510;-81
2021/04/21 02:51:24;;;;;;;10.02;4.75;;;6.10;99.90;;;;;;12407650;28;20084;-81
2021/04/21 02:57:46;;;;;;;10.05;5.00;;;6.10;99.90;;;;;;12407231;28;20058;-81
2021/04/21 03:04:17;;;;;;;8.82;5.25;;;5.90;99.90;;;;;;12394232;28;20141;-81
2021/04/21 03:10:22;;;;;;;14.10;5.40;;;5.90;99.90;;;;;;12396485;28;20042;-81
2021/04/21 03:16:25;;;;;;;9.60;5.32;;;5.70;99.90;;;;;;12389143;28;20586;-81
2021/04/21 03:22:29;;;;;;;11.45;6.07;;;5.80;99.90;;;;;;12394879;28;20076;-81
2021/04/21 03:28:32;;;;;;;10.13;5.57;;;5.70;99.90;;;;;;12412057;28;20065;-81
2021/04/21 03:34:36;;;;;;;11.50;6.03;;;5.80;99.90;;;;;;12414697;28;20425;-80
2021/04/21 03:40:38;;;;;;;10.07;6.05;;;5.50;99.90;;;;;;12458196;28;20034;-81
2021/04/21 03:46:42;;;;;;;10.98;5.47;;;5.70;99.90;;;;;;12456439;28;20065;-81
2021/04/21 03:52:46;;;;;;;7.87;5.10;;;5.70;99.90;;;;;;12412795;28;20689;-80
2021/04/21 03:58:49;;;;;;;12.27;5.55;;;5.50;99.90;;;;;;12402258;28;20104;-81
2021/04/21 04:04:55;;;;;;;9.40;5.22;;;5.50;99.90;;;;;;12384565;28;20546;-80
2021/04/21 04:11:00;;;;;;;10.05;5.60;;;5.50;99.90;;;;;;12387413;28;20549;-80
2021/04/21 04:17:03;;;;;;;9.20;5.60;;;5.50;99.90;;;;;;12385110;28;20145;-80
2021/04/21 04:23:08;;;;;;;8.87;5.40;;;5.60;99.90;;;;;;12389175;28;20146;-80
2021/04/21 04:29:10;;;;;;;14.65;5.65;;;5.60;99.90;;;;;;12381214;28;20114;-80
2021/04/21 04:35:12;;;;;;;7.80;4.65;;;5.40;99.90;;;;;;12385219;28;20122;-80
2021/04/21 04:41:14;;;;;;;10.02;5.00;;;5.50;99.90;;;;;;12379262;28;20498;-80
2021/04/21 04:47:28;;;;;;;8.25;4.78;;;5.40;99.90;;;;;;12387381;28;20873;-82
2021/04/21 04:53:30;;;;;;;13.40;5.73;;;6.20;99.90;;;;;;12398773;28;20446;-82
2021/04/21 04:59:33;;;;;;;10.38;5.18;;;5.90;99.90;;;;;;12387572;28;20534;-81
2021/04/21 05:05:36;;;;;;;10.43;5.18;;;6.30;99.90;;;;;;12398577;28;20046;-81
2021/04/21 05:11:42;;;;;;;10.15;5.07;;;6.00;99.90;;;;;;12391208;28;20141;-81
2021/04/21 05:18:13;;;;;;;7.30;5.05;;;6.10;99.90;;;;;;12397279;28;20093;-82
2021/04/21 05:24:48;;;;;;;8.63;5.00;;;6.30;99.90;;;;;;12406674;28;20172;-81
2021/04/21 05:31:41;;;;;;;11.67;5.63;;;7.80;99.90;;;;;;12411118;28;20069;-82
2021/04/21 05:38:20;;;;;;;9.60;5.30;;;8.10;99.90;;;;;;12346865;28;20184;-82
2021/04/21 05:45:00;;;;;;;8.50;5.43;;;9.70;99.90;;;;;;12411991;28;20046;-82
2021/04/21 05:51:47;;;;;;;11.18;5.20;;;12.20;99.90;;;;;;12412872;28;20066;-82
2021/04/21 05:57:54;;;;;;;9.45;5.25;;;13.50;99.90;;;;;;12409192;28;21671;-82
2021/04/21 06:03:57;;;;;;;11.35;5.15;;;12.50;99.90;;;;;;12410712;28;20066;-81
2021/04/21 06:09:58;;;;;;;10.38;5.93;;;11.50;99.90;;;;;;12405108;28;20106;-81
2021/04/21 06:16:00;;;;;;;12.00;5.63;;;10.50;99.90;;;;;;12398232;28;20133;-81
2021/04/21 06:22:01;;;;;;;10.52;5.43;;;10.20;99.90;;;;;;12397901;28;20070;-82
2021/04/21 06:28:11;;;;;;;11.70;5.93;;;10.10;99.90;;;;;;12385448;28;20096;-81
2021/04/21 06:34:13;;;;;;;13.40;6.40;;;9.90;99.90;;;;;;12405979;28;20046;-81
2021/04/21 06:40:16;;;;;;;16.48;6.30;;;9.90;99.90;;;;;;12390224;28;20046;-82
2021/04/21 06:46:18;;;;;;;14.20;6.80;;;9.90;99.90;;;;;;12391065;28;20157;-82
2021/04/21 06:52:20;;;;;;;11.18;7.28;;;9.90;99.90;;;;;;12386986;28;20133;-82
2021/04/21 06:58:22;;;;;;;14.80;8.10;;;10.20;99.90;;;;;;12387333;28;20061;-82
2021/04/21 07:04:23;;;;;;;17.45;8.43;;;10.40;99.90;;;;;;12392308;28;20161;-82
2021/04/21 07:10:24;;;;;;;18.85;8.65;;;10.50;99.90;;;;;;12392163;28;20065;-82
2021/04/21 07:16:28;;;;;;;17.92;9.43;;;10.70;99.90;;;;;;12390248;28;20058;-82
2021/04/21 07:22:30;;;;;;;20.48;10.20;;;10.90;99.90;;;;;;12384625;28;20050;-82
2021/04/21 07:28:36;;;;;;;17.70;9.93;;;11.00;99.90;;;;;;12394284;28;20088;-82
2021/04/21 07:34:38;;;;;;;15.63;8.73;;;11.10;99.90;;;;;;12388142;28;20054;-82
2021/04/21 07:40:39;;;;;;;17.00;8.85;;;11.30;99.90;;;;;;12402660;28;20043;-82
2021/04/21 07:46:40;;;;;;;15.13;10.20;;;11.50;99.90;;;;;;12389619;28;20101;-82
2021/04/21 07:52:42;;;;;;;12.30;7.90;;;11.70;99.90;;;;;;12387250;28;20046;-82
2021/04/21 07:58:43;;;;;;;15.98;8.32;;;12.10;99.90;;;;;;12394281;28;20076;-82
2021/04/21 08:04:55;;;;;;;13.77;8.32;;;12.10;99.90;;;;;;12385673;28;20047;-82
2021/04/21 08:10:57;;;;;;;11.18;6.63;;;12.40;99.90;;;;;;12379460;28;20093;-82
2021/04/21 08:16:58;;;;;;;12.52;6.60;;;12.70;99.90;;;;;;12391516;28;20054;-82
2021/04/21 08:23:02;;;;;;;10.05;6.60;;;12.90;99.90;;;;;;12387110;28;20046;-83
2021/04/21 08:29:08;;;;;;;13.10;5.90;;;13.00;99.90;;;;;;12406747;28;20058;-82
2021/04/21 08:35:11;;;;;;;10.95;5.82;;;13.30;99.90;;;;;;12395209;28;20042;-82
2021/04/21 08:41:16;;;;;;;6.70;4.50;;;13.60;99.90;;;;;;12382611;28;20046;-82
2021/04/21 08:47:18;;;;;;;9.77;5.05;;;13.90;99.90;;;;;;12397911;28;20675;-82
2021/04/21 08:53:21;;;;;;;7.82;4.03;;;14.10;99.90;;;;;;12394899;28;20061;-82
2021/04/21 08:59:23;;;;;;;12.00;4.80;;;14.10;99.90;;;;;;12412240;28;20088;-82
2021/04/21 09:05:24;;;;;;;10.55;4.63;;;14.50;99.90;;;;;;12397774;28;20061;-82
2021/04/21 09:11:26;;;;;;;13.30;5.57;;;14.60;99.90;;;;;;12391953;28;20054;-83
2021/04/21 09:17:29;;;;;;;10.63;4.38;;;14.90;99.90;;;;;;12401635;28;20086;-82
2021/04/21 09:23:38;;;;;;;13.55;4.55;;;15.00;99.90;;;;;;12396293;28;20458;-82
2021/04/21 09:29:39;;;;;;;8.43;4.50;;;15.20;99.90;;;;;;12392981;28;20116;-82
2021/04/21 09:35:42;;;;;;;7.75;4.78;;;15.60;99.90;;;;;;12391231;28;20130;-82
2021/04/21 09:41:45;;;;;;;9.02;4.05;;;15.70;99.90;;;;;;12403297;28;20103;-82
2021/04/21 09:48:07;;;;;;;7.57;4.63;;;15.90;99.90;;;;;;12397438;28;20070;-82
2021/04/21 09:54:09;;;;;;;8.85;5.82;;;16.10;99.90;;;;;;12392886;28;20076;-82
2021/04/21 10:00:10;;;;;;;9.90;7.47;;;16.00;99.90;;;;;;12415369;28;20120;-82
2021/04/21 10:06:21;;;;;;;12.73;7.22;;;16.00;99.90;;;;;;12394084;28;20141;-82
2021/04/21 10:12:25;;;;;;;9.20;6.45;;;15.80;99.90;;;;;;12396577;28;20133;-83
2021/04/21 10:18:27;;;;;;;11.30;5.30;;;15.70;99.90;;;;;;12403343;28;20522;-82
2021/04/21 10:24:29;;;;;;;9.25;4.90;;;15.70;99.90;;;;;;12408230;28;20041;-81
2021/04/21 10:30:30;;;;;;;7.93;4.30;;;15.70;99.90;;;;;;12402705;28;20077;-82
2021/04/21 10:36:32;;;;;;;5.93;3.55;;;15.90;99.90;;;;;;12400961;28;20056;-81
2021/04/21 10:42:47;;;;;;;6.85;4.55;;;16.30;99.90;;;;;;12397880;28;20168;-82
2021/04/21 10:48:49;;;;;;;6.57;3.90;;;16.40;99.90;;;;;;12399498;28;20522;-83
2021/04/21 10:54:56;;;;;;;9.45;4.35;;;16.50;99.90;;;;;;12395764;28;20046;-82
2021/04/21 11:00:58;;;;;;;9.65;4.40;;;16.60;99.90;;;;;;12406071;28;20050;-82
2021/04/21 11:06:59;;;;;;;8.40;4.75;;;16.90;99.90;;;;;;12398272;28;20046;-83
2021/04/21 11:13:01;;;;;;;9.88;5.00;;;16.90;99.90;;;;;;12398896;28;20045;-82
2021/04/21 11:19:38;;;;;;;10.00;5.40;;;17.00;99.90;;;;;;12397037;28;20133;-83
2021/04/21 11:25:40;;;;;;;8.88;5.63;;;17.20;99.90;;;;;;12433227;28;20042;-83
2021/04/21 11:31:51;;;;;;;8.35;5.72;;;17.40;99.90;;;;;;12435442;28;20454;-82
2021/04/21 11:37:52;;;;;;;11.13;4.65;;;17.10;99.90;;;;;;12402874;28;20054;-82
2021/04/21 11:43:53;;;;;;;7.75;4.70;;;17.20;99.90;;;;;;12402996;28;20124;-82
2021/04/21 11:50:06;;;;;;;7.55;4.53;;;17.20;99.90;;;;;;12404134;28;20121;-82
2021/04/21 11:56:09;;;;;;;8.15;3.65;;;16.90;99.90;;;;;;12389987;28;20045;-82
2021/04/21 12:02:11;;;;;;;7.45;3.90;;;17.00;97.30;;;;;;12401564;28;20089;-83
2021/04/21 12:08:16;;;;;;;9.15;4.53;;;16.90;99.90;;;;;;12396969;28;20089;-82
2021/04/21 12:14:18;;;;;;;10.80;4.65;;;17.00;98.30;;;;;;12390580;28;20570;-82
2021/04/21 12:20:25;;;;;;;11.63;5.20;;;17.20;99.90;;;;;;12386972;28;20165;-83
2021/04/21 12:26:31;;;;;;;6.68;4.43;;;17.70;99.90;;;;;;12397535;28;20089;-82
2021/04/21 12:32:33;;;;;;;10.60;4.30;;;17.80;99.90;;;;;;12412727;28;20165;-82
2021/04/21 12:38:36;;;;;;;8.25;4.95;;;17.50;99.90;;;;;;12397481;28;20054;-82
2021/04/21 12:44:40;;;;;;;9.07;5.00;;;17.60;99.90;;;;;;12396183;28;20347;-83
2021/04/21 12:50:48;;;;;;;7.10;4.70;;;18.40;99.90;;;;;;12401959;28;20072;-83
2021/04/21 12:56:50;;;;;;;10.13;4.85;;;17.80;99.90;;;;;;12401166;28;20193;-82
2021/04/21 13:02:52;;;;;;;11.35;4.75;;;17.00;99.90;;;;;;12392456;28;20104;-82
2021/04/21 13:09:12;;;;;;;7.38;5.22;;;17.80;99.90;;;;;;12395149;28;20042;-83
2021/04/21 13:15:18;;;;;;;13.70;8.75;;;18.40;99.90;;;;;;12389812;28;20073;-83
2021/04/21 13:21:20;;;;;;;19.00;11.48;;;18.70;99.90;;;;;;12390857;28;20178;-84
2021/04/21 13:27:31;;;;;;;16.13;11.30;;;18.30;99.90;;;;;;12403066;28;20129;-82
2021/04/21 13:33:34;;;;;;;16.35;11.18;;;17.20;99.90;;;;;;12399686;28;20058;-82
2021/04/21 13:39:35;;;;;;;18.60;11.00;;;16.90;99.90;;;;;;12394477;28;20054;-82
2021/04/21 13:45:36;;;;;;;17.02;11.23;;;17.50;99.90;;;;;;12410174;28;20077;-82
2021/04/21 13:51:38;;;;;;;16.52;11.98;;;17.10;99.90;;;;;;12405485;28;20046;-84
2021/04/21 13:57:39;;;;;;;23.02;15.77;;;15.90;99.90;;;;;;12408871;28;20125;-84
2021/04/21 14:03:41;;;;;;;27.40;15.18;;;15.30;99.90;;;;;;12398373;28;20070;-82
2021/04/21 14:09:42;;;;;;;23.73;14.75;;;15.00;99.90;;;;;;12408597;28;20084;-84
2021/04/21 14:15:43;;;;;;;21.38;13.95;;;15.00;99.90;;;;;;12394977;28;20137;-84
2021/04/21 14:21:45;;;;;;;19.60;12.77;;;14.80;99.90;;;;;;12407183;28;21122;-82
2021/04/21 14:27:47;;;;;;;18.65;9.63;;;15.20;99.90;;;;;;12389095;28;20525;-82
2021/04/21 14:33:48;;;;;;;16.80;9.65;;;15.60;99.90;;;;;;12389047;28;20189;-83
2021/04/21 14:39:50;;;;;;;16.02;8.50;;;15.20;99.90;;;;;;12395317;28;20526;-82
2021/04/21 14:45:51;;;;;;;16.83;10.35;;;14.80;99.90;;;;;;12391396;28;20095;-83
2021/04/21 14:51:53;;;;;;;20.50;10.40;;;14.50;99.90;;;;;;12392605;28;20173;-83
2021/04/21 14:57:55;;;;;;;13.55;9.32;;;14.40;99.90;;;;;;12395599;28;20050;-83
2021/04/21 15:03:56;;;;;;;20.00;9.50;;;14.10;99.90;;;;;;12396011;28;20153;-84
2021/04/21 15:09:57;;;;;;;12.85;8.85;;;13.80;99.90;;;;;;12392636;28;20597;-83
2021/04/21 15:15:59;;;;;;;11.80;6.55;;;14.30;99.90;;;;;;12394331;28;20116;-82
2021/04/21 15:22:02;;;;;;;10.18;5.60;;;13.90;99.90;;;;;;12400530;28;20070;-83
2021/04/21 15:28:04;;;;;;;9.15;4.63;;;14.30;99.90;;;;;;12408882;28;20053;-82
2021/04/21 15:34:07;;;;;;;7.43;3.50;;;14.30;99.90;;;;;;12398033;28;20054;-83
2021/04/21 15:40:15;;;;;;;10.57;3.60;;;14.20;99.90;;;;;;12421538;28;20050;-83
2021/04/21 15:46:16;;;;;;;8.90;3.70;;;13.90;99.90;;;;;;12407233;28;20076;-83
2021/04/21 15:52:17;;;;;;;9.77;3.25;;;13.40;99.90;;;;;;12388497;28;20535;-83
2021/04/21 15:58:27;;;;;;;11.75;3.53;;;13.00;99.90;;;;;;12410976;28;20553;-82
2021/04/21 16:04:29;;;;;;;10.70;2.80;;;12.60;99.90;;;;;;12395839;28;20039;-82
2021/04/21 16:10:38;;;;;;;13.75;4.07;;;12.80;99.90;;;;;;12396379;28;20762;-82
2021/04/21 16:16:40;;;;;;;10.00;3.47;;;12.40;99.90;;;;;;12392639;28;20081;-83
2021/04/21 16:22:43;;;;;;;8.75;2.95;;;12.00;99.90;;;;;;12394643;28;20042;-84
2021/04/21 16:28:44;;;;;;;12.15;3.45;;;11.90;99.90;;;;;;12402595;28;20052;-83
2021/04/21 16:34:47;;;;;;;11.95;2.88;;;12.10;99.90;;;;;;12403245;28;20131;-81
2021/04/21 16:40:53;;;;;;;14.00;3.03;;;11.90;99.90;;;;;;12385543;28;20107;-81
2021/04/21 16:46:54;;;;;;;14.80;3.30;;;11.50;99.90;;;;;;12388200;28;20047;-83
2021/04/21 16:52:56;;;;;;;15.88;3.63;;;11.40;99.90;;;;;;12406312;28;20058;-82
2021/04/21 16:59:15;;;;;;;12.48;3.53;;;11.30;99.90;;;;;;12373231;28;20054;-81
2021/04/21 17:05:18;;;;;;;15.27;3.15;;;11.10;99.90;;;;;;12402187;28;20092;-82
2021/04/21 17:11:20;;;;;;;17.23;3.60;;;11.20;99.90;;;;;;12394930;28;20092;-81
2021/04/21 17:17:21;;;;;;;16.98;3.90;;;11.10;99.90;;;;;;12382240;28;20053;-82
2021/04/21 17:23:23;;;;;;;12.00;3.40;;;11.00;99.90;;;;;;12382107;28;20085;-81
2021/04/21 17:29:24;;;;;;;16.88;3.08;;;11.00;99.90;;;;;;12405595;28;20129;-82
2021/04/21 17:35:26;;;;;;;9.23;3.05;;;10.90;99.90;;;;;;12388645;28;20188;-81
2021/04/21 17:41:27;;;;;;;19.35;3.70;;;10.90;99.90;;;;;;12386705;28;20077;-81
2021/04/21 17:47:28;;;;;;;11.55;2.88;;;11.20;99.90;;;;;;12395641;28;20556;-82
2021/04/21 17:53:31;;;;;;;14.88;2.72;;;11.30;99.90;;;;;;12389580;28;20519;-82
2021/04/21 17:59:32;;;;;;;8.77;2.55;;;11.10;99.90;;;;;;12387007;28;20093;-82
2021/04/21 18:05:34;;;;;;;12.13;2.45;;;10.70;99.90;;;;;;12395896;28;20038;-81
2021/04/21 18:11:36;;;;;;;8.77;2.33;;;10.20;99.90;;;;;;12397483;28;20130;-81
2021/04/21 18:17:37;;;;;;;10.77;2.08;;;10.00;99.90;;;;;;12399095;28;20101;-81
2021/04/21 18:23:38;;;;;;;9.98;2.38;;;9.70;99.90;;;;;;12397183;28;20051;-81
2021/04/21 18:29:40;;;;;;;9.35;2.40;;;9.50;99.90;;;;;;12398114;28;20054;-81
2021/04/21 18:35:42;;;;;;;15.00;2.30;;;9.20;99.90;;;;;;12410265;28;20265;-81
2021/04/21 18:41:43;;;;;;;10.15;2.20;;;8.90;99.90;;;;;;12391581;28;20108;-81
2021/04/21 18:47:45;;;;;;;6.82;1.70;;;8.90;99.90;;;;;;12396107;28;20498;-81
2021/04/21 18:53:46;;;;;;;8.32;1.30;;;8.70;99.90;;;;;;12388113;28;20699;-81
2021/04/21 18:59:48;;;;;;;8.02;1.38;;;8.60;99.90;;;;;;12394297;28;20122;-80
2021/04/21 19:05:50;;;;;;;10.88;1.52;;;8.40;99.90;;;;;;12384516;28;20486;-80
2021/04/21 19:11:52;;;;;;;9.63;1.50;;;8.20;99.90;;;;;;12383632;28;20449;-80
2021/04/21 19:17:53;;;;;;;11.00;1.45;;;8.10;99.90;;;;;;12412565;28;20626;-80
2021/04/21 19:23:55;;;;;;;12.43;1.58;;;7.80;99.90;;;;;;12386072;28;20137;-80
2021/04/21 19:29:56;;;;;;;7.93;1.73;;;7.70;99.90;;;;;;12400436;28;20136;-80
2021/04/21 19:35:58;;;;;;;8.88;1.40;;;7.50;99.90;;;;;;12397087;28;20124;-80
2021/04/21 19:42:00;;;;;;;9.82;1.27;;;7.50;99.90;;;;;;12397321;28;20038;-80
2021/04/21 19:48:01;;;;;;;6.15;1.48;;;7.30;99.90;;;;;;12392930;28;20043;-80
2021/04/21 19:54:07;;;;;;;10.98;2.10;;;7.30;99.90;;;;;;12394411;28;20509;-80
2021/04/21 20:00:15;;;;;;;10.13;2.00;;;7.30;99.90;;;;;;12390320;28;20623;-80
2021/04/21 20:06:16;;;;;;;12.20;2.05;;;7.00;99.90;;;;;;12386753;28;20200;-80
2021/04/21 20:12:17;;;;;;;11.73;2.55;;;7.00;99.90;;;;;;12408331;28;20087;-80
2021/04/21 20:18:19;;;;;;;12.52;3.65;;;6.90;99.90;;;;;;12393207;28;20589;-80
2021/04/21 20:24:20;;;;;;;14.05;3.22;;;6.80;99.90;;;;;;12392095;28;20088;-80
2021/04/21 20:30:22;;;;;;;13.70;2.10;;;6.60;99.90;;;;;;12395906;28;20085;-79
2021/04/21 20:36:23;;;;;;;12.27;2.40;;;6.50;99.90;;;;;;12391295;28;20330;-80
2021/04/21 20:42:26;;;;;;;15.65;2.35;;;6.60;99.90;;;;;;12383250;28;20129;-80
2021/04/21 20:48:27;;;;;;;16.02;2.00;;;6.40;99.90;;;;;;12390497;28;20100;-80
2021/04/21 20:54:28;;;;;;;16.40;2.50;;;6.20;99.90;;;;;;12387405;28;20169;-80
2021/04/21 21:00:31;;;;;;;13.63;2.28;;;6.30;99.90;;;;;;12388892;28;20123;-80
2021/04/21 21:06:33;;;;;;;14.20;2.33;;;6.30;99.90;;;;;;12391581;28;20381;-81
2021/04/21 21:12:34;;;;;;;15.45;3.22;;;6.30;99.90;;;;;;12390222;28;20055;-80
2021/04/21 21:18:36;;;;;;;12.02;1.88;;;6.20;99.90;;;;;;12405554;28;20145;-80
2021/04/21 21:24:37;;;;;;;13.98;2.58;;;6.10;99.90;;;;;;12385207;28;20069;-80
2021/04/21 21:30:39;;;;;;;14.68;3.30;;;6.00;99.90;;;;;;12380744;28;20169;-81
2021/04/21 21:36:41;;;;;;;12.70;2.42;;;5.90;99.90;;;;;;12388592;28;20075;-80
2021/04/21 21:42:43;;;;;;;15.77;2.30;;;5.80;99.90;;;;;;12385953;28;20187;-80
2021/04/21 21:48:46;;;;;;;13.93;1.92;;;5.80;99.90;;;;;;12402148;28;20046;-80
2021/04/21 21:54:48;;;;;;;17.13;2.72;;;5.60;99.90;;;;;;12395912;28;20039;-80
2021/04/21 22:00:50;;;;;;;11.63;2.20;;;5.60;99.90;;;;;;12402835;28;20049;-80
2021/04/21 22:06:52;;;;;;;19.45;2.30;;;5.50;99.90;;;;;;12397822;28;20042;-80
2021/04/21 22:12:54;;;;;;;11.73;1.98;;;5.50;99.90;;;;;;12395915;28;20092;-80
2021/04/21 22:18:55;;;;;;;18.27;3.25;;;5.50;99.90;;;;;;12397241;28;20765;-80
2021/04/21 22:24:57;;;;;;;16.75;2.40;;;5.40;99.90;;;;;;12399887;28;20049;-81
2021/04/21 22:30:58;;;;;;;15.90;2.13;;;5.40;99.90;;;;;;12401706;28;20049;-81
2021/04/21 22:36:59;;;;;;;18.17;2.97;;;5.40;99.90;;;;;;12406136;28;20212;-81
2021/04/21 22:43:02;;;;;;;18.25;2.88;;;5.30;99.90;;;;;;12396229;28;20710;-81
2021/04/21 22:49:05;;;;;;;19.73;3.15;;;5.40;99.90;;;;;;12394636;28;20170;-80
2021/04/21 22:55:10;;;;;;;18.00;2.85;;;5.30;99.90;;;;;;12411818;28;20077;-80
2021/04/21 23:01:15;;;;;;;24.38;3.17;;;5.40;99.90;;;;;;12414082;28;20120;-80
2021/04/21 23:07:16;;;;;;;15.13;2.97;;;5.30;99.90;;;;;;12409307;28;20511;-80
2021/04/21 23:13:17;;;;;;;25.42;3.88;;;5.40;99.90;;;;;;12424271;28;20053;-80
2021/04/21 23:19:20;;;;;;;17.30;3.30;;;5.30;99.90;;;;;;12450108;28;20042;-79
2021/04/21 23:25:23;;;;;;;20.50;4.03;;;5.30;99.90;;;;;;12439563;28;20050;-79
2021/04/21 23:31:25;;;;;;;18.65;3.28;;;5.30;99.90;;;;;;12439564;28;20104;-80
2021/04/21 23:37:26;;;;;;;17.92;3.28;;;5.30;99.90;;;;;;12386174;28;20077;-80
2021/04/21 23:43:27;;;;;;;10.57;3.05;;;5.20;99.90;;;;;;12389592;28;20046;-79
2021/04/21 23:49:29;;;;;;;22.45;3.50;;;5.40;99.90;;;;;;12390873;28;20158;-80
2021/04/21 23:55:30;;;;;;;18.83;3.50;;;5.30;99.90;;;;;;12388029;28;20184;-80
